sensor_id;sensor_type;location;lat;lon;timestamp;P1;durP1;ratioP1;P2;durP2;ratioP2
32323;SDS011;25666;44.350;9.222;2022-11-20T00:00:35;6.13;;;2.58;;
32323;SDS011;25666;44.350;9.222;2022-11-20T00:03:00;4.13;;;2.03;;
32323;SDS011;25666;44.350;9.222;2022-11-20T00:05:26;4.35;;;2.33;;
32323;SDS011;25666;44.350;9.222;2022-11-20T00:07:51;4.80;;;1.77;;
32323;SDS011;25666;44.350;9.222;2022-11-20T00:10:17;6.97;;;2.35;;
32323;SDS011;25666;44.350;9.222;2022-11-20T00:12:42;3.88;;;2.08;;
32323;SDS011;25666;44.350;9.222;2022-11-20T00:15:08;6.28;;;2.10;;
32323;SDS011;25666;44.350;9.222;2022-11-20T00:17:35;4.03;;;2.03;;
32323;SDS011;25666;44.350;9.222;2022-11-20T00:20:00;4.90;;;1.77;;
32323;SDS011;25666;44.350;9.222;2022-11-20T00:22:26;4.28;;;2.20;;
32323;SDS011;25666;44.350;9.222;2022-11-20T00:24:51;4.18;;;1.95;;
32323;SDS011;25666;44.350;9.222;2022-11-20T00:27:17;5.10;;;1.75;;
32323;SDS011;25666;44.350;9.222;2022-11-20T00:29:42;5.85;;;2.50;;
32323;SDS011;25666;44.350;9.222;2022-11-20T00:32:08;4.18;;;2.17;;
32323;SDS011;25666;44.350;9.222;2022-11-20T00:34:33;4.32;;;2.15;;
32323;SDS011;25666;44.350;9.222;2022-11-20T00:36:59;3.78;;;2.03;;
32323;SDS011;25666;44.350;9.222;2022-11-20T00:39:25;3.47;;;2.10;;
32323;SDS011;25666;44.350;9.222;2022-11-20T00:41:53;5.95;;;2.03;;
32323;SDS011;25666;44.350;9.222;2022-11-20T00:44:19;3.95;;;1.90;;
32323;SDS011;25666;44.350;9.222;2022-11-20T00:46:45;3.65;;;2.08;;
32323;SDS011;25666;44.350;9.222;2022-11-20T00:49:10;3.70;;;1.73;;
32323;SDS011;25666;44.350;9.222;2022-11-20T00:51:36;3.70;;;1.75;;
32323;SDS011;25666;44.350;9.222;2022-11-20T00:54:03;8.57;;;2.33;;
32323;SDS011;25666;44.350;9.222;2022-11-20T00:56:29;2.85;;;1.67;;
32323;SDS011;25666;44.350;9.222;2022-11-20T00:58:55;3.63;;;1.83;;
32323;SDS011;25666;44.350;9.222;2022-11-20T01:01:26;5.80;;;1.90;;
32323;SDS011;25666;44.350;9.222;2022-11-20T01:03:55;3.47;;;1.98;;
32323;SDS011;25666;44.350;9.222;2022-11-20T01:06:29;5.70;;;1.65;;
32323;SDS011;25666;44.350;9.222;2022-11-20T01:08:57;10.32;;;1.75;;
32323;SDS011;25666;44.350;9.222;2022-11-20T01:11:27;4.45;;;1.98;;
32323;SDS011;25666;44.350;9.222;2022-11-20T01:13:54;2.42;;;1.60;;
32323;SDS011;25666;44.350;9.222;2022-11-20T01:16:27;2.10;;;1.30;;
32323;SDS011;25666;44.350;9.222;2022-11-20T01:18:56;3.92;;;1.52;;
32323;SDS011;25666;44.350;9.222;2022-11-20T01:21:23;3.50;;;1.90;;
32323;SDS011;25666;44.350;9.222;2022-11-20T01:23:51;3.30;;;1.52;;
32323;SDS011;25666;44.350;9.222;2022-11-20T01:26:18;4.90;;;1.50;;
32323;SDS011;25666;44.350;9.222;2022-11-20T01:28:46;4.28;;;1.88;;
32323;SDS011;25666;44.350;9.222;2022-11-20T01:33:43;3.08;;;1.50;;
32323;SDS011;25666;44.350;9.222;2022-11-20T01:36:11;3.53;;;1.55;;
32323;SDS011;25666;44.350;9.222;2022-11-20T01:38:38;3.25;;;1.50;;
32323;SDS011;25666;44.350;9.222;2022-11-20T01:41:04;3.92;;;1.60;;
32323;SDS011;25666;44.350;9.222;2022-11-20T01:43:30;2.42;;;2.22;;
32323;SDS011;25666;44.350;9.222;2022-11-20T01:48:46;3.28;;;1.67;;
32323;SDS011;25666;44.350;9.222;2022-11-20T01:54:04;3.08;;;1.95;;
32323;SDS011;25666;44.350;9.222;2022-11-20T01:56:35;6.85;;;1.92;;
32323;SDS011;25666;44.350;9.222;2022-11-20T01:59:04;6.53;;;2.00;;
32323;SDS011;25666;44.350;9.222;2022-11-20T02:01:33;4.35;;;1.80;;
32323;SDS011;25666;44.350;9.222;2022-11-20T02:03:59;6.45;;;2.00;;
32323;SDS011;25666;44.350;9.222;2022-11-20T02:06:30;3.78;;;2.45;;
32323;SDS011;25666;44.350;9.222;2022-11-20T02:09:00;5.28;;;1.90;;
32323;SDS011;25666;44.350;9.222;2022-11-20T02:11:25;4.47;;;1.88;;
32323;SDS011;25666;44.350;9.222;2022-11-20T02:13:51;2.50;;;1.45;;
32323;SDS011;25666;44.350;9.222;2022-11-20T02:16:28;2.33;;;1.63;;
32323;SDS011;25666;44.350;9.222;2022-11-20T02:19:09;4.28;;;1.95;;
32323;SDS011;25666;44.350;9.222;2022-11-20T02:21:55;3.88;;;1.50;;
32323;SDS011;25666;44.350;9.222;2022-11-20T02:24:32;6.30;;;1.60;;
32323;SDS011;25666;44.350;9.222;2022-11-20T02:27:09;5.30;;;2.05;;
32323;SDS011;25666;44.350;9.222;2022-11-20T02:29:50;3.47;;;1.90;;
32323;SDS011;25666;44.350;9.222;2022-11-20T02:32:26;5.30;;;2.10;;
32323;SDS011;25666;44.350;9.222;2022-11-20T02:34:56;2.97;;;2.00;;
32323;SDS011;25666;44.350;9.222;2022-11-20T02:37:22;8.55;;;2.42;;
32323;SDS011;25666;44.350;9.222;2022-11-20T02:39:52;6.53;;;2.67;;
32323;SDS011;25666;44.350;9.222;2022-11-20T02:42:18;5.03;;;2.47;;
32323;SDS011;25666;44.350;9.222;2022-11-20T02:44:44;4.43;;;1.80;;
32323;SDS011;25666;44.350;9.222;2022-11-20T02:47:09;5.68;;;2.00;;
32323;SDS011;25666;44.350;9.222;2022-11-20T02:49:35;3.95;;;1.90;;
32323;SDS011;25666;44.350;9.222;2022-11-20T02:52:03;5.40;;;1.98;;
32323;SDS011;25666;44.350;9.222;2022-11-20T02:54:29;6.65;;;2.65;;
32323;SDS011;25666;44.350;9.222;2022-11-20T02:56:57;2.28;;;1.73;;
32323;SDS011;25666;44.350;9.222;2022-11-20T02:59:23;8.25;;;2.22;;
32323;SDS011;25666;44.350;9.222;2022-11-20T03:01:49;4.03;;;1.90;;
32323;SDS011;25666;44.350;9.222;2022-11-20T03:04:14;3.80;;;2.03;;
32323;SDS011;25666;44.350;9.222;2022-11-20T03:06:40;4.93;;;1.80;;
32323;SDS011;25666;44.350;9.222;2022-11-20T03:09:05;3.67;;;2.25;;
32323;SDS011;25666;44.350;9.222;2022-11-20T03:11:31;2.97;;;1.73;;
32323;SDS011;25666;44.350;9.222;2022-11-20T03:13:56;9.45;;;2.47;;
32323;SDS011;25666;44.350;9.222;2022-11-20T03:16:22;3.97;;;1.98;;
32323;SDS011;25666;44.350;9.222;2022-11-20T03:18:48;3.50;;;2.00;;
32323;SDS011;25666;44.350;9.222;2022-11-20T03:21:16;3.38;;;1.70;;
32323;SDS011;25666;44.350;9.222;2022-11-20T03:23:42;5.00;;;2.20;;
32323;SDS011;25666;44.350;9.222;2022-11-20T03:28:41;4.93;;;2.17;;
32323;SDS011;25666;44.350;9.222;2022-11-20T03:31:13;10.55;;;3.00;;
32323;SDS011;25666;44.350;9.222;2022-11-20T03:33:40;5.45;;;2.17;;
32323;SDS011;25666;44.350;9.222;2022-11-20T03:36:08;3.15;;;1.85;;
32323;SDS011;25666;44.350;9.222;2022-11-20T03:38:35;4.43;;;2.03;;
32323;SDS011;25666;44.350;9.222;2022-11-20T03:41:02;5.20;;;1.95;;
32323;SDS011;25666;44.350;9.222;2022-11-20T03:43:33;4.13;;;2.25;;
32323;SDS011;25666;44.350;9.222;2022-11-20T03:45:59;5.35;;;2.53;;
32323;SDS011;25666;44.350;9.222;2022-11-20T03:48:24;4.00;;;2.40;;
32323;SDS011;25666;44.350;9.222;2022-11-20T03:50:51;5.00;;;2.33;;
32323;SDS011;25666;44.350;9.222;2022-11-20T03:53:19;4.45;;;2.47;;
32323;SDS011;25666;44.350;9.222;2022-11-20T03:55:45;4.93;;;2.03;;
32323;SDS011;25666;44.350;9.222;2022-11-20T03:58:15;4.40;;;2.00;;
32323;SDS011;25666;44.350;9.222;2022-11-20T04:00:41;6.35;;;2.53;;
32323;SDS011;25666;44.350;9.222;2022-11-20T04:03:06;6.70;;;2.53;;
32323;SDS011;25666;44.350;9.222;2022-11-20T04:05:33;10.05;;;2.67;;
32323;SDS011;25666;44.350;9.222;2022-11-20T04:07:59;5.15;;;2.58;;
32323;SDS011;25666;44.350;9.222;2022-11-20T04:10:25;5.65;;;2.90;;
32323;SDS011;25666;44.350;9.222;2022-11-20T04:12:51;5.55;;;2.65;;
32323;SDS011;25666;44.350;9.222;2022-11-20T04:15:16;4.50;;;2.38;;
32323;SDS011;25666;44.350;9.222;2022-11-20T04:17:42;10.10;;;3.13;;
32323;SDS011;25666;44.350;9.222;2022-11-20T04:20:07;4.95;;;2.33;;
32323;SDS011;25666;44.350;9.222;2022-11-20T04:22:33;5.03;;;2.72;;
32323;SDS011;25666;44.350;9.222;2022-11-20T04:24:59;5.32;;;2.80;;
32323;SDS011;25666;44.350;9.222;2022-11-20T04:27:24;6.85;;;2.50;;
32323;SDS011;25666;44.350;9.222;2022-11-20T04:29:50;7.40;;;2.58;;
32323;SDS011;25666;44.350;9.222;2022-11-20T04:32:15;4.95;;;2.50;;
32323;SDS011;25666;44.350;9.222;2022-11-20T04:34:41;11.35;;;3.22;;
32323;SDS011;25666;44.350;9.222;2022-11-20T04:37:06;5.15;;;2.40;;
32323;SDS011;25666;44.350;9.222;2022-11-20T04:39:32;5.78;;;2.97;;
32323;SDS011;25666;44.350;9.222;2022-11-20T04:41:57;10.23;;;3.33;;
32323;SDS011;25666;44.350;9.222;2022-11-20T04:44:41;7.13;;;3.15;;
32323;SDS011;25666;44.350;9.222;2022-11-20T04:47:07;7.72;;;2.13;;
32323;SDS011;25666;44.350;9.222;2022-11-20T04:49:32;5.80;;;2.40;;
32323;SDS011;25666;44.350;9.222;2022-11-20T04:51:58;4.05;;;2.60;;
32323;SDS011;25666;44.350;9.222;2022-11-20T04:54:24;5.78;;;2.55;;
32323;SDS011;25666;44.350;9.222;2022-11-20T04:56:50;9.68;;;3.03;;
32323;SDS011;25666;44.350;9.222;2022-11-20T04:59:15;5.07;;;2.67;;
32323;SDS011;25666;44.350;9.222;2022-11-20T05:01:41;8.50;;;2.72;;
32323;SDS011;25666;44.350;9.222;2022-11-20T05:04:07;6.03;;;3.13;;
32323;SDS011;25666;44.350;9.222;2022-11-20T05:06:32;5.70;;;2.85;;
32323;SDS011;25666;44.350;9.222;2022-11-20T05:08:58;7.03;;;3.58;;
32323;SDS011;25666;44.350;9.222;2022-11-20T05:11:25;7.25;;;3.20;;
32323;SDS011;25666;44.350;9.222;2022-11-20T05:13:51;6.43;;;2.80;;
32323;SDS011;25666;44.350;9.222;2022-11-20T05:16:18;6.38;;;2.55;;
32323;SDS011;25666;44.350;9.222;2022-11-20T05:18:45;6.20;;;2.33;;
32323;SDS011;25666;44.350;9.222;2022-11-20T05:21:11;5.93;;;2.65;;
32323;SDS011;25666;44.350;9.222;2022-11-20T05:23:37;6.72;;;2.53;;
32323;SDS011;25666;44.350;9.222;2022-11-20T05:26:04;5.70;;;2.45;;
32323;SDS011;25666;44.350;9.222;2022-11-20T05:28:33;4.78;;;2.53;;
32323;SDS011;25666;44.350;9.222;2022-11-20T05:31:06;8.98;;;2.95;;
32323;SDS011;25666;44.350;9.222;2022-11-20T05:33:33;13.95;;;3.10;;
32323;SDS011;25666;44.350;9.222;2022-11-20T05:36:00;4.07;;;2.65;;
32323;SDS011;25666;44.350;9.222;2022-11-20T05:38:26;3.47;;;2.22;;
32323;SDS011;25666;44.350;9.222;2022-11-20T05:40:51;5.88;;;3.00;;
32323;SDS011;25666;44.350;9.222;2022-11-20T05:43:17;6.07;;;2.70;;
32323;SDS011;25666;44.350;9.222;2022-11-20T05:45:42;6.88;;;2.65;;
32323;SDS011;25666;44.350;9.222;2022-11-20T05:48:08;8.25;;;2.72;;
32323;SDS011;25666;44.350;9.222;2022-11-20T05:50:33;4.95;;;2.42;;
32323;SDS011;25666;44.350;9.222;2022-11-20T05:52:59;7.18;;;2.72;;
32323;SDS011;25666;44.350;9.222;2022-11-20T05:55:27;15.05;;;2.92;;
32323;SDS011;25666;44.350;9.222;2022-11-20T05:57:53;6.55;;;2.58;;
32323;SDS011;25666;44.350;9.222;2022-11-20T06:00:19;4.50;;;2.20;;
32323;SDS011;25666;44.350;9.222;2022-11-20T06:02:46;2.85;;;1.95;;
32323;SDS011;25666;44.350;9.222;2022-11-20T06:05:12;3.92;;;1.95;;
32323;SDS011;25666;44.350;9.222;2022-11-20T06:07:37;6.47;;;3.42;;
32323;SDS011;25666;44.350;9.222;2022-11-20T06:10:03;6.35;;;3.45;;
32323;SDS011;25666;44.350;9.222;2022-11-20T06:12:30;5.15;;;2.92;;
32323;SDS011;25666;44.350;9.222;2022-11-20T06:14:56;5.78;;;2.20;;
32323;SDS011;25666;44.350;9.222;2022-11-20T06:17:22;7.13;;;2.58;;
32323;SDS011;25666;44.350;9.222;2022-11-20T06:19:47;4.63;;;2.33;;
32323;SDS011;25666;44.350;9.222;2022-11-20T06:22:13;6.00;;;2.60;;
32323;SDS011;25666;44.350;9.222;2022-11-20T06:24:38;7.43;;;2.80;;
32323;SDS011;25666;44.350;9.222;2022-11-20T06:27:04;5.30;;;2.70;;
32323;SDS011;25666;44.350;9.222;2022-11-20T06:29:30;3.90;;;2.33;;
32323;SDS011;25666;44.350;9.222;2022-11-20T06:31:55;7.05;;;2.60;;
32323;SDS011;25666;44.350;9.222;2022-11-20T06:34:21;9.98;;;2.58;;
32323;SDS011;25666;44.350;9.222;2022-11-20T06:36:46;5.85;;;3.05;;
32323;SDS011;25666;44.350;9.222;2022-11-20T06:39:12;6.32;;;2.70;;
32323;SDS011;25666;44.350;9.222;2022-11-20T06:41:37;7.45;;;3.25;;
32323;SDS011;25666;44.350;9.222;2022-11-20T06:44:04;5.90;;;2.72;;
32323;SDS011;25666;44.350;9.222;2022-11-20T06:46:30;6.25;;;2.83;;
32323;SDS011;25666;44.350;9.222;2022-11-20T06:48:56;6.57;;;2.90;;
32323;SDS011;25666;44.350;9.222;2022-11-20T06:51:23;6.68;;;2.90;;
32323;SDS011;25666;44.350;9.222;2022-11-20T06:53:49;5.78;;;2.80;;
32323;SDS011;25666;44.350;9.222;2022-11-20T06:56:14;9.18;;;2.40;;
32323;SDS011;25666;44.350;9.222;2022-11-20T06:58:40;5.38;;;2.58;;
32323;SDS011;25666;44.350;9.222;2022-11-20T07:01:07;6.78;;;2.72;;
32323;SDS011;25666;44.350;9.222;2022-11-20T07:03:35;7.13;;;2.28;;
32323;SDS011;25666;44.350;9.222;2022-11-20T07:06:01;4.60;;;2.45;;
32323;SDS011;25666;44.350;9.222;2022-11-20T07:08:27;6.43;;;2.45;;
32323;SDS011;25666;44.350;9.222;2022-11-20T07:10:52;6.35;;;2.50;;
32323;SDS011;25666;44.350;9.222;2022-11-20T07:13:22;8.00;;;2.88;;
32323;SDS011;25666;44.350;9.222;2022-11-20T07:15:48;8.38;;;2.08;;
32323;SDS011;25666;44.350;9.222;2022-11-20T07:18:13;5.63;;;2.58;;
32323;SDS011;25666;44.350;9.222;2022-11-20T07:20:39;7.53;;;3.63;;
32323;SDS011;25666;44.350;9.222;2022-11-20T07:23:04;9.95;;;2.28;;
32323;SDS011;25666;44.350;9.222;2022-11-20T07:25:30;10.02;;;2.42;;
32323;SDS011;25666;44.350;9.222;2022-11-20T07:27:58;4.75;;;1.65;;
32323;SDS011;25666;44.350;9.222;2022-11-20T07:30:25;3.28;;;2.00;;
32323;SDS011;25666;44.350;9.222;2022-11-20T07:32:54;3.95;;;1.85;;
32323;SDS011;25666;44.350;9.222;2022-11-20T07:35:21;5.15;;;2.05;;
32323;SDS011;25666;44.350;9.222;2022-11-20T07:37:47;4.85;;;3.00;;
32323;SDS011;25666;44.350;9.222;2022-11-20T07:40:14;5.03;;;2.10;;
32323;SDS011;25666;44.350;9.222;2022-11-20T07:42:50;7.70;;;2.00;;
32323;SDS011;25666;44.350;9.222;2022-11-20T07:45:17;7.63;;;2.30;;
32323;SDS011;25666;44.350;9.222;2022-11-20T07:47:43;7.55;;;2.70;;
32323;SDS011;25666;44.350;9.222;2022-11-20T07:50:09;5.78;;;2.05;;
32323;SDS011;25666;44.350;9.222;2022-11-20T07:52:35;4.32;;;1.92;;
32323;SDS011;25666;44.350;9.222;2022-11-20T07:55:01;6.47;;;2.17;;
32323;SDS011;25666;44.350;9.222;2022-11-20T07:57:26;3.63;;;1.85;;
32323;SDS011;25666;44.350;9.222;2022-11-20T07:59:52;3.08;;;2.08;;
32323;SDS011;25666;44.350;9.222;2022-11-20T08:02:17;4.03;;;2.35;;
32323;SDS011;25666;44.350;9.222;2022-11-20T08:04:48;2.65;;;1.50;;
32323;SDS011;25666;44.350;9.222;2022-11-20T08:07:14;4.82;;;1.80;;
32323;SDS011;25666;44.350;9.222;2022-11-20T08:09:39;3.42;;;1.88;;
32323;SDS011;25666;44.350;9.222;2022-11-20T08:12:05;4.82;;;1.48;;
32323;SDS011;25666;44.350;9.222;2022-11-20T08:14:49;2.88;;;1.73;;
32323;SDS011;25666;44.350;9.222;2022-11-20T08:17:15;5.28;;;1.77;;
32323;SDS011;25666;44.350;9.222;2022-11-20T08:19:40;7.70;;;1.52;;
32323;SDS011;25666;44.350;9.222;2022-11-20T08:22:06;5.88;;;1.30;;
32323;SDS011;25666;44.350;9.222;2022-11-20T08:24:31;3.45;;;1.70;;
32323;SDS011;25666;44.350;9.222;2022-11-20T08:26:57;5.30;;;1.80;;
32323;SDS011;25666;44.350;9.222;2022-11-20T08:29:25;2.97;;;1.60;;
32323;SDS011;25666;44.350;9.222;2022-11-20T08:31:51;4.07;;;1.40;;
32323;SDS011;25666;44.350;9.222;2022-11-20T08:34:18;2.45;;;1.60;;
32323;SDS011;25666;44.350;9.222;2022-11-20T08:36:45;4.57;;;1.40;;
32323;SDS011;25666;44.350;9.222;2022-11-20T08:39:12;3.13;;;1.45;;
32323;SDS011;25666;44.350;9.222;2022-11-20T08:41:38;2.30;;;1.40;;
32323;SDS011;25666;44.350;9.222;2022-11-20T08:44:04;2.38;;;1.50;;
32323;SDS011;25666;44.350;9.222;2022-11-20T08:46:38;4.63;;;1.85;;
32323;SDS011;25666;44.350;9.222;2022-11-20T08:49:12;3.70;;;1.85;;
32323;SDS011;25666;44.350;9.222;2022-11-20T08:51:39;2.60;;;1.52;;
32323;SDS011;25666;44.350;9.222;2022-11-20T08:54:05;2.28;;;1.40;;
32323;SDS011;25666;44.350;9.222;2022-11-20T08:56:31;7.07;;;2.15;;
32323;SDS011;25666;44.350;9.222;2022-11-20T08:58:57;7.63;;;2.20;;
32323;SDS011;25666;44.350;9.222;2022-11-20T09:01:24;3.45;;;1.60;;
32323;SDS011;25666;44.350;9.222;2022-11-20T09:03:50;2.90;;;1.90;;
32323;SDS011;25666;44.350;9.222;2022-11-20T09:06:16;2.83;;;1.40;;
32323;SDS011;25666;44.350;9.222;2022-11-20T09:08:42;3.72;;;1.60;;
32323;SDS011;25666;44.350;9.222;2022-11-20T09:11:13;6.32;;;1.60;;
32323;SDS011;25666;44.350;9.222;2022-11-20T09:13:39;2.42;;;1.40;;
32323;SDS011;25666;44.350;9.222;2022-11-20T09:16:06;1.95;;;1.48;;
32323;SDS011;25666;44.350;9.222;2022-11-20T09:18:33;3.58;;;1.77;;
32323;SDS011;25666;44.350;9.222;2022-11-20T09:21:02;5.18;;;1.70;;
32323;SDS011;25666;44.350;9.222;2022-11-20T09:23:34;5.97;;;1.98;;
32323;SDS011;25666;44.350;9.222;2022-11-20T09:26:01;3.00;;;1.40;;
32323;SDS011;25666;44.350;9.222;2022-11-20T09:28:28;1.42;;;1.13;;
32323;SDS011;25666;44.350;9.222;2022-11-20T09:30:55;3.72;;;1.80;;
32323;SDS011;25666;44.350;9.222;2022-11-20T09:33:21;2.03;;;1.35;;
32323;SDS011;25666;44.350;9.222;2022-11-20T09:35:46;3.00;;;1.10;;
32323;SDS011;25666;44.350;9.222;2022-11-20T09:38:12;3.38;;;1.85;;
32323;SDS011;25666;44.350;9.222;2022-11-20T09:40:40;7.43;;;1.85;;
32323;SDS011;25666;44.350;9.222;2022-11-20T09:43:18;3.70;;;2.03;;
32323;SDS011;25666;44.350;9.222;2022-11-20T09:48:44;2.58;;;1.52;;
32323;SDS011;25666;44.350;9.222;2022-11-20T09:51:26;3.20;;;1.60;;
32323;SDS011;25666;44.350;9.222;2022-11-20T09:54:15;2.40;;;1.40;;
32323;SDS011;25666;44.350;9.222;2022-11-20T09:57:05;2.38;;;1.40;;
32323;SDS011;25666;44.350;9.222;2022-11-20T09:59:36;5.15;;;1.52;;
32323;SDS011;25666;44.350;9.222;2022-11-20T10:05:10;2.33;;;1.35;;
32323;SDS011;25666;44.350;9.222;2022-11-20T10:10:47;2.58;;;1.40;;
32323;SDS011;25666;44.350;9.222;2022-11-20T10:13:29;6.37;;;1.80;;
32323;SDS011;25666;44.350;9.222;2022-11-20T10:22:20;2.10;;;1.20;;
32323;SDS011;25666;44.350;9.222;2022-11-20T10:30:16;3.50;;;1.40;;
32323;SDS011;25666;44.350;9.222;2022-11-20T10:33:08;3.92;;;1.10;;
32323;SDS011;25666;44.350;9.222;2022-11-20T10:38:39;2.92;;;1.00;;
32323;SDS011;25666;44.350;9.222;2022-11-20T10:41:16;1.48;;;1.20;;
32323;SDS011;25666;44.350;9.222;2022-11-20T10:43:53;2.35;;;1.40;;
32323;SDS011;25666;44.350;9.222;2022-11-20T10:47:00;4.65;;;1.30;;
32323;SDS011;25666;44.350;9.222;2022-11-20T10:49:26;1.42;;;1.20;;
32323;SDS011;25666;44.350;9.222;2022-11-20T10:52:13;1.70;;;1.08;;
32323;SDS011;25666;44.350;9.222;2022-11-20T11:01:31;4.90;;;1.60;;
32323;SDS011;25666;44.350;9.222;2022-11-20T11:03:51;3.08;;;1.75;;
32323;SDS011;25666;44.350;9.222;2022-11-20T11:09:19;3.65;;;1.52;;
32323;SDS011;25666;44.350;9.222;2022-11-20T11:11:52;3.40;;;1.38;;
32323;SDS011;25666;44.350;9.222;2022-11-20T11:14:17;8.35;;;2.00;;
32323;SDS011;25666;44.350;9.222;2022-11-20T11:16:54;3.00;;;1.38;;
32323;SDS011;25666;44.350;9.222;2022-11-20T11:19:22;2.05;;;1.50;;
32323;SDS011;25666;44.350;9.222;2022-11-20T11:21:54;1.83;;;1.42;;
32323;SDS011;25666;44.350;9.222;2022-11-20T11:24:22;3.10;;;1.58;;
32323;SDS011;25666;44.350;9.222;2022-11-20T11:29:21;3.10;;;1.48;;
32323;SDS011;25666;44.350;9.222;2022-11-20T11:31:46;5.07;;;1.85;;
32323;SDS011;25666;44.350;9.222;2022-11-20T11:34:13;4.63;;;1.55;;
32323;SDS011;25666;44.350;9.222;2022-11-20T11:36:40;4.03;;;1.83;;
32323;SDS011;25666;44.350;9.222;2022-11-20T11:39:16;4.75;;;1.90;;
32323;SDS011;25666;44.350;9.222;2022-11-20T11:41:44;3.95;;;1.63;;
32323;SDS011;25666;44.350;9.222;2022-11-20T11:50:01;2.20;;;1.52;;
32323;SDS011;25666;44.350;9.222;2022-11-20T11:55:40;5.13;;;1.83;;
32323;SDS011;25666;44.350;9.222;2022-11-20T12:00:54;3.45;;;1.50;;
32323;SDS011;25666;44.350;9.222;2022-11-20T12:03:34;2.25;;;1.30;;
32323;SDS011;25666;44.350;9.222;2022-11-20T12:06:08;4.10;;;1.90;;
32323;SDS011;25666;44.350;9.222;2022-11-20T12:11:04;6.72;;;1.67;;
32323;SDS011;25666;44.350;9.222;2022-11-20T12:13:42;3.60;;;1.80;;
32323;SDS011;25666;44.350;9.222;2022-11-20T12:16:23;2.78;;;1.63;;
32323;SDS011;25666;44.350;9.222;2022-11-20T12:18:50;3.10;;;1.60;;
32323;SDS011;25666;44.350;9.222;2022-11-20T12:23:50;5.82;;;1.65;;
32323;SDS011;25666;44.350;9.222;2022-11-20T12:27:11;3.08;;;1.75;;
32323;SDS011;25666;44.350;9.222;2022-11-20T12:35:32;4.22;;;1.67;;
32323;SDS011;25666;44.350;9.222;2022-11-20T12:41:16;3.15;;;2.17;;
32323;SDS011;25666;44.350;9.222;2022-11-20T12:55:53;3.03;;;1.85;;
32323;SDS011;25666;44.350;9.222;2022-11-20T12:58:36;4.75;;;2.55;;
32323;SDS011;25666;44.350;9.222;2022-11-20T13:04:07;5.18;;;2.20;;
32323;SDS011;25666;44.350;9.222;2022-11-20T13:06:42;4.35;;;2.35;;
32323;SDS011;25666;44.350;9.222;2022-11-20T13:09:10;5.10;;;2.00;;
32323;SDS011;25666;44.350;9.222;2022-11-20T13:17:30;6.88;;;2.40;;
32323;SDS011;25666;44.350;9.222;2022-11-20T13:20:05;5.40;;;2.50;;
32323;SDS011;25666;44.350;9.222;2022-11-20T13:22:47;4.55;;;2.35;;
32323;SDS011;25666;44.350;9.222;2022-11-20T13:27:57;9.85;;;2.85;;
32323;SDS011;25666;44.350;9.222;2022-11-20T13:30:28;8.35;;;4.07;;
32323;SDS011;25666;44.350;9.222;2022-11-20T13:33:22;9.75;;;4.35;;
32323;SDS011;25666;44.350;9.222;2022-11-20T13:35:56;14.32;;;5.97;;
32323;SDS011;25666;44.350;9.222;2022-11-20T13:38:25;9.32;;;5.20;;
32323;SDS011;25666;44.350;9.222;2022-11-20T13:43:23;10.88;;;5.10;;
32323;SDS011;25666;44.350;9.222;2022-11-20T13:46:07;17.80;;;8.82;;
32323;SDS011;25666;44.350;9.222;2022-11-20T13:48:38;15.32;;;7.72;;
32323;SDS011;25666;44.350;9.222;2022-11-20T13:51:21;16.25;;;7.70;;
32323;SDS011;25666;44.350;9.222;2022-11-20T13:56:47;14.27;;;6.43;;
32323;SDS011;25666;44.350;9.222;2022-11-20T13:59:30;10.48;;;5.47;;
32323;SDS011;25666;44.350;9.222;2022-11-20T14:02:14;9.10;;;4.80;;
32323;SDS011;25666;44.350;9.222;2022-11-20T14:04:44;11.00;;;4.13;;
32323;SDS011;25666;44.350;9.222;2022-11-20T14:07:13;6.85;;;3.75;;
32323;SDS011;25666;44.350;9.222;2022-11-20T14:09:48;9.70;;;4.68;;
32323;SDS011;25666;44.350;9.222;2022-11-20T14:12:22;11.63;;;4.75;;
32323;SDS011;25666;44.350;9.222;2022-11-20T14:14:54;15.18;;;6.57;;
32323;SDS011;25666;44.350;9.222;2022-11-20T14:20:02;13.02;;;5.75;;
32323;SDS011;25666;44.350;9.222;2022-11-20T14:22:39;9.68;;;4.63;;
32323;SDS011;25666;44.350;9.222;2022-11-20T14:27:40;10.48;;;4.45;;
32323;SDS011;25666;44.350;9.222;2022-11-20T14:30:14;14.95;;;4.65;;
32323;SDS011;25666;44.350;9.222;2022-11-20T14:32:42;13.93;;;5.00;;
32323;SDS011;25666;44.350;9.222;2022-11-20T14:35:09;15.75;;;6.38;;
32323;SDS011;25666;44.350;9.222;2022-11-20T14:37:44;13.65;;;4.57;;
32323;SDS011;25666;44.350;9.222;2022-11-20T14:42:48;10.45;;;4.10;;
32323;SDS011;25666;44.350;9.222;2022-11-20T14:45:14;9.57;;;4.35;;
32323;SDS011;25666;44.350;9.222;2022-11-20T14:47:40;16.35;;;6.85;;
32323;SDS011;25666;44.350;9.222;2022-11-20T14:50:12;24.40;;;10.40;;
32323;SDS011;25666;44.350;9.222;2022-11-20T14:52:49;24.65;;;10.00;;
32323;SDS011;25666;44.350;9.222;2022-11-20T14:55:24;28.05;;;11.20;;
32323;SDS011;25666;44.350;9.222;2022-11-20T14:57:54;34.45;;;15.32;;
32323;SDS011;25666;44.350;9.222;2022-11-20T15:00:22;65.28;;;23.55;;
32323;SDS011;25666;44.350;9.222;2022-11-20T15:02:49;64.00;;;25.95;;
32323;SDS011;25666;44.350;9.222;2022-11-20T15:05:17;73.90;;;29.50;;
32323;SDS011;25666;44.350;9.222;2022-11-20T15:07:49;67.35;;;26.83;;
32323;SDS011;25666;44.350;9.222;2022-11-20T15:10:30;60.25;;;23.27;;
32323;SDS011;25666;44.350;9.222;2022-11-20T15:13:00;54.13;;;20.58;;
32323;SDS011;25666;44.350;9.222;2022-11-20T15:15:32;43.45;;;17.35;;
32323;SDS011;25666;44.350;9.222;2022-11-20T15:18:02;30.05;;;11.35;;
32323;SDS011;25666;44.350;9.222;2022-11-20T15:20:30;25.60;;;10.50;;
32323;SDS011;25666;44.350;9.222;2022-11-20T15:22:57;22.20;;;7.40;;
32323;SDS011;25666;44.350;9.222;2022-11-20T15:25:23;19.10;;;9.98;;
32323;SDS011;25666;44.350;9.222;2022-11-20T15:27:51;17.27;;;9.57;;
32323;SDS011;25666;44.350;9.222;2022-11-20T15:30:20;18.93;;;8.37;;
32323;SDS011;25666;44.350;9.222;2022-11-20T15:32:47;15.20;;;5.07;;
32323;SDS011;25666;44.350;9.222;2022-11-20T15:35:13;7.53;;;3.85;;
32323;SDS011;25666;44.350;9.222;2022-11-20T15:37:40;7.68;;;3.90;;
32323;SDS011;25666;44.350;9.222;2022-11-20T15:40:06;12.32;;;3.65;;
32323;SDS011;25666;44.350;9.222;2022-11-20T15:45:15;6.55;;;3.00;;
32323;SDS011;25666;44.350;9.222;2022-11-20T15:50:37;9.02;;;2.85;;
32323;SDS011;25666;44.350;9.222;2022-11-20T15:58:34;13.77;;;4.95;;
32323;SDS011;25666;44.350;9.222;2022-11-20T16:00:59;14.05;;;4.72;;
32323;SDS011;25666;44.350;9.222;2022-11-20T16:03:25;9.82;;;4.25;;
32323;SDS011;25666;44.350;9.222;2022-11-20T16:05:50;9.63;;;4.00;;
32323;SDS011;25666;44.350;9.222;2022-11-20T16:08:16;12.88;;;3.10;;
32323;SDS011;25666;44.350;9.222;2022-11-20T16:10:41;8.18;;;3.33;;
32323;SDS011;25666;44.350;9.222;2022-11-20T16:13:14;13.15;;;3.67;;
32323;SDS011;25666;44.350;9.222;2022-11-20T16:16:02;11.75;;;3.53;;
32323;SDS011;25666;44.350;9.222;2022-11-20T16:18:30;6.97;;;2.75;;
32323;SDS011;25666;44.350;9.222;2022-11-20T16:20:57;9.32;;;3.67;;
32323;SDS011;25666;44.350;9.222;2022-11-20T16:23:22;13.45;;;3.60;;
32323;SDS011;25666;44.350;9.222;2022-11-20T16:25:49;9.18;;;4.10;;
32323;SDS011;25666;44.350;9.222;2022-11-20T16:28:15;12.43;;;3.80;;
32323;SDS011;25666;44.350;9.222;2022-11-20T16:30:43;10.23;;;4.07;;
32323;SDS011;25666;44.350;9.222;2022-11-20T16:33:10;12.02;;;5.68;;
32323;SDS011;25666;44.350;9.222;2022-11-20T16:35:37;23.48;;;6.70;;
32323;SDS011;25666;44.350;9.222;2022-11-20T16:38:03;19.23;;;6.70;;
32323;SDS011;25666;44.350;9.222;2022-11-20T16:40:29;12.82;;;6.78;;
32323;SDS011;25666;44.350;9.222;2022-11-20T16:42:54;24.73;;;7.53;;
32323;SDS011;25666;44.350;9.222;2022-11-20T16:45:20;18.75;;;7.10;;
32323;SDS011;25666;44.350;9.222;2022-11-20T16:47:46;16.38;;;6.30;;
32323;SDS011;25666;44.350;9.222;2022-11-20T16:50:11;16.00;;;4.90;;
32323;SDS011;25666;44.350;9.222;2022-11-20T16:52:37;9.20;;;4.28;;
32323;SDS011;25666;44.350;9.222;2022-11-20T16:55:03;16.75;;;5.03;;